Time;durP1;ratioP1;P1;durP2;ratioP2;P2;SDS_P1;SDS_P2;PMS_P1;PMS_P2;Temp;Humidity;BMP_temperature;BMP_pressure;BME280_temperature;BME280_humidity;BME280_pressure;Samples;Min_cycle;Max_cycle;Signal;HPM_P1;HPM_P2
2022/05/03 00:01:56;;;;;;;14.88;11.85;;;8.00;99.90;;;;;;5056454;28;20099;-65
2022/05/03 00:04:22;;;;;;;12.02;10.80;;;8.00;99.90;;;;;;5056288;28;20041;-66
2022/05/03 00:07:08;;;;;;;13.30;11.93;;;7.90;99.90;;;;;;5056358;28;20168;-65
2022/05/03 00:10:02;;;;;;;13.70;11.63;;;7.90;99.90;;;;;;5056073;28;20045;-65
2022/05/03 00:13:06;;;;;;;13.43;11.63;;;8.00;99.90;;;;;;5056091;28;20059;-65
2022/05/03 00:15:35;;;;;;;12.50;11.30;;;8.00;99.90;;;;;;5033000;28;20046;-65
2022/05/03 00:18:02;;;;;;;12.07;10.82;;;8.00;99.90;;;;;;5036332;28;20460;-65
2022/05/03 00:20:28;;;;;;;12.27;10.98;;;8.00;99.90;;;;;;5036151;28;20079;-65
2022/05/03 00:22:55;;;;;;;13.90;11.35;;;8.00;99.90;;;;;;5036372;28;20463;-66
2022/05/03 00:25:21;;;;;;;13.25;11.85;;;7.90;99.90;;;;;;5035673;28;20448;-64
2022/05/03 00:27:47;;;;;;;13.57;10.98;;;8.00;99.90;;;;;;5032446;28;20045;-66
2022/05/03 00:30:13;;;;;;;15.20;12.02;;;8.00;99.90;;;;;;5037485;28;20041;-66
2022/05/03 00:32:40;;;;;;;14.18;12.38;;;8.00;99.90;;;;;;5055456;28;20060;-65
2022/05/03 00:35:08;;;;;;;16.77;12.77;;;8.00;99.90;;;;;;5055511;28;20084;-65
2022/05/03 00:37:33;;;;;;;13.60;12.20;;;8.00;99.90;;;;;;5038492;28;20136;-66
2022/05/03 00:39:59;;;;;;;13.82;12.27;;;8.00;99.90;;;;;;5055257;28;20123;-65
2022/05/03 00:42:30;;;;;;;13.48;12.05;;;8.00;99.90;;;;;;5055511;28;20358;-65
2022/05/03 00:45:00;;;;;;;15.45;12.20;;;7.90;99.90;;;;;;5055553;28;20128;-65
2022/05/03 00:47:39;;;;;;;17.15;14.05;;;7.90;99.90;;;;;;5054651;28;20044;-66
2022/05/03 00:50:06;;;;;;;16.52;12.10;;;7.90;99.90;;;;;;5055306;28;20099;-65
2022/05/03 00:53:16;;;;;;;15.50;11.98;;;7.90;99.90;;;;;;5055331;28;20080;-65
2022/05/03 00:56:02;;;;;;;16.13;12.45;;;7.90;99.90;;;;;;5010893;28;20132;-64
2022/05/03 00:58:49;;;;;;;16.50;14.27;;;7.90;99.90;;;;;;5037950;28;20057;-65
2022/05/03 01:01:38;;;;;;;15.85;14.20;;;7.90;99.90;;;;;;5055232;28;20049;-66
2022/05/03 01:04:16;;;;;;;16.30;13.13;;;7.90;99.90;;;;;;5053478;28;20060;-66
2022/05/03 01:06:52;;;;;;;14.57;13.05;;;7.80;99.90;;;;;;5055049;28;20439;-65
2022/05/03 01:09:28;;;;;;;16.27;13.57;;;7.90;99.90;;;;;;5054736;28;20045;-65
2022/05/03 01:12:25;;;;;;;18.70;15.35;;;7.90;99.90;;;;;;5055016;28;20045;-65
2022/05/03 01:15:19;;;;;;;18.30;15.20;;;7.80;99.90;;;;;;5054949;28;20059;-65
2022/05/03 01:17:51;;;;;;;17.92;15.60;;;7.80;99.90;;;;;;5054589;28;20569;-65
2022/05/03 01:20:40;;;;;;;17.90;15.55;;;7.70;99.90;;;;;;5054954;28;20059;-64
2022/05/03 01:23:22;;;;;;;17.85;16.00;;;7.70;99.90;;;;;;5034992;28;20041;-65
2022/05/03 01:26:10;;;;;;;21.95;16.95;;;7.60;99.90;;;;;;5036286;28;20050;-65
2022/05/03 01:28:59;;;;;;;22.05;18.02;;;7.60;99.90;;;;;;5054744;28;20048;-65
2022/05/03 01:31:28;;;;;;;19.77;16.92;;;7.60;99.90;;;;;;5054743;28;20103;-66
2022/05/03 01:33:59;;;;;;;24.67;18.38;;;7.60;99.90;;;;;;5054899;28;20475;-65
2022/05/03 01:36:39;;;;;;;17.70;15.18;;;7.70;99.90;;;;;;5054382;28;20481;-65
2022/05/03 01:39:27;;;;;;;20.20;17.55;;;7.80;99.90;;;;;;5054059;28;20083;-67
2022/05/03 01:42:30;;;;;;;22.38;19.77;;;7.80;99.90;;;;;;5055062;28;20371;-66
2022/05/03 01:45:09;;;;;;;22.52;18.75;;;7.80;99.90;;;;;;5023599;28;20447;-66
2022/05/03 01:47:56;;;;;;;21.98;19.67;;;7.90;99.90;;;;;;5034713;28;20391;-65
2022/05/03 01:50:57;;;;;;;20.20;17.70;;;8.10;99.90;;;;;;5030535;28;20073;-66
2022/05/03 01:53:46;;;;;;;18.05;15.25;;;8.10;99.90;;;;;;5015068;28;20073;-65
2022/05/03 01:56:32;;;;;;;21.35;17.33;;;8.20;99.90;;;;;;5027803;28;20033;-65
2022/05/03 01:59:16;;;;;;;20.42;17.38;;;8.20;99.90;;;;;;5034566;28;20049;-65
2022/05/03 02:01:56;;;;;;;21.35;18.23;;;8.30;99.90;;;;;;5034651;28;20048;-65
2022/05/03 02:04:36;;;;;;;19.77;17.48;;;8.40;99.90;;;;;;5034670;28;20065;-66
2022/05/03 02:07:07;;;;;;;20.55;17.23;;;8.40;99.90;;;;;;5034571;28;20128;-65
2022/05/03 02:09:45;;;;;;;19.95;17.83;;;8.40;99.90;;;;;;5034298;28;20048;-65
2022/05/03 02:12:17;;;;;;;23.52;19.10;;;8.60;99.90;;;;;;5033748;28;20041;-65
2022/05/03 02:14:54;;;;;;;21.75;18.70;;;8.60;99.90;;;;;;5034447;28;20049;-65
2022/05/03 02:17:52;;;;;;;20.88;18.52;;;8.60;99.90;;;;;;5038317;28;20080;-65
2022/05/03 02:21:04;;;;;;;21.48;18.15;;;8.70;99.90;;;;;;5038244;28;20046;-65
2022/05/03 02:23:41;;;;;;;24.38;19.05;;;8.70;99.90;;;;;;4996848;28;20454;-65
2022/05/03 02:26:19;;;;;;;24.95;20.67;;;8.70;99.90;;;;;;4984113;28;20081;-65
2022/05/03 02:29:13;;;;;;;22.60;20.02;;;8.80;99.90;;;;;;4995167;28;20141;-65
2022/05/03 02:31:49;;;;;;;23.08;19.50;;;8.80;99.90;;;;;;5037824;28;20444;-64
2022/05/03 02:34:27;;;;;;;22.55;19.80;;;8.90;99.90;;;;;;5038109;28;20053;-66
2022/05/03 02:37:00;;;;;;;25.85;20.65;;;8.90;99.90;;;;;;5037826;28;20049;-65
2022/05/03 02:39:31;;;;;;;30.60;23.17;;;8.90;99.90;;;;;;5037863;28;20081;-65
2022/05/03 02:42:01;;;;;;;33.40;25.05;;;8.90;99.90;;;;;;5038061;28;20045;-65
2022/05/03 02:44:31;;;;;;;29.25;22.92;;;8.90;99.90;;;;;;5037919;28;20084;-64
2022/05/03 02:47:05;;;;;;;27.85;23.38;;;8.90;99.90;;;;;;5053069;28;20060;-65
2022/05/03 02:49:46;;;;;;;28.98;23.27;;;9.00;99.90;;;;;;5057405;28;20052;-64
2022/05/03 02:52:44;;;;;;;29.08;23.73;;;9.00;99.90;;;;;;5057567;28;20067;-65
2022/05/03 02:55:20;;;;;;;31.67;25.05;;;9.10;99.90;;;;;;5057938;28;20424;-64
2022/05/03 02:58:13;;;;;;;31.98;26.05;;;9.10;99.90;;;;;;5057532;28;20045;-65
2022/05/03 03:03:56;;;;;;;35.03;27.88;;;9.10;99.90;;;;;;5056585;28;20131;-65
2022/05/03 03:06:23;;;;;;;35.92;28.08;;;9.20;99.90;;;;;;5057343;28;20055;-65
2022/05/03 03:08:52;;;;;;;34.17;26.65;;;9.20;99.90;;;;;;5039720;28;20118;-65
2022/05/03 03:11:29;;;;;;;32.17;26.77;;;9.20;99.90;;;;;;5057330;28;20358;-65
2022/05/03 03:14:10;;;;;;;30.48;24.42;;;9.30;99.90;;;;;;5057109;28;20517;-65
2022/05/03 03:16:44;;;;;;;32.63;25.50;;;9.30;99.90;;;;;;5057155;28;20500;-65
2022/05/03 03:19:37;;;;;;;28.10;22.67;;;9.40;99.90;;;;;;5057161;28;20084;-64
2022/05/03 03:22:11;;;;;;;30.90;24.73;;;9.40;99.90;;;;;;5037113;28;20272;-65
2022/05/03 03:24:38;;;;;;;29.52;24.30;;;9.40;99.90;;;;;;5037049;28;20490;-65
2022/05/03 03:27:08;;;;;;;34.67;25.27;;;9.40;99.90;;;;;;5047336;28;20045;-66
2022/05/03 03:29:36;;;;;;;35.35;28.92;;;9.50;99.90;;;;;;5056767;28;20044;-65
2022/05/03 03:32:05;;;;;;;35.78;27.77;;;9.50;99.90;;;;;;5057226;28;20045;-66
2022/05/03 03:34:32;;;;;;;34.20;27.35;;;9.50;99.90;;;;;;5057007;28;20115;-65
2022/05/03 03:37:01;;;;;;;43.35;31.95;;;9.60;99.90;;;;;;5056049;28;20049;-65
2022/05/03 03:39:31;;;;;;;43.72;31.90;;;9.60;99.90;;;;;;5056328;28;20048;-66
2022/05/03 03:42:05;;;;;;;34.10;28.00;;;9.60;99.90;;;;;;5056700;28;20037;-65
2022/05/03 03:44:31;;;;;;;40.00;29.77;;;9.60;99.90;;;;;;5056686;28;20048;-65
2022/05/03 03:47:00;;;;;;;41.35;32.30;;;9.60;99.90;;;;;;5056723;28;20141;-65
2022/05/03 03:49:27;;;;;;;40.13;29.92;;;9.60;99.90;;;;;;5056746;28;20041;-65
2022/05/03 03:51:54;;;;;;;41.70;30.33;;;9.70;99.90;;;;;;5056390;28;20427;-64
2022/05/03 03:54:20;;;;;;;38.85;29.77;;;9.70;99.90;;;;;;5055661;28;20041;-65
2022/05/03 03:56:46;;;;;;;37.58;28.67;;;9.60;99.90;;;;;;5056540;28;20044;-65
2022/05/03 03:59:14;;;;;;;38.25;30.58;;;9.70;99.90;;;;;;5056461;28;20116;-66
2022/05/03 04:01:40;;;;;;;40.03;31.20;;;9.70;99.90;;;;;;5056391;28;20040;-66
2022/05/03 04:04:08;;;;;;;37.63;29.60;;;9.70;99.90;;;;;;5056092;28;20387;-65
2022/05/03 04:06:35;;;;;;;41.20;31.02;;;9.70;99.90;;;;;;5056237;28;20051;-66
2022/05/03 04:09:00;;;;;;;41.97;31.88;;;9.70;99.90;;;;;;5056094;28;20079;-65
2022/05/03 04:11:26;;;;;;;40.90;30.15;;;9.70;99.90;;;;;;5055601;28;20056;-65
2022/05/03 04:13:52;;;;;;;40.90;31.77;;;9.70;99.90;;;;;;5056175;28;20080;-66
2022/05/03 04:16:18;;;;;;;38.00;29.38;;;9.80;99.90;;;;;;5056145;28;20087;-63
2022/05/03 04:18:44;;;;;;;41.33;31.35;;;9.80;99.90;;;;;;5055580;28;20045;-63
2022/05/03 04:21:17;;;;;;;44.03;31.77;;;9.80;99.90;;;;;;5055700;28;20051;-63
2022/05/03 04:23:45;;;;;;;41.38;30.20;;;9.80;99.90;;;;;;5055938;28;20107;-63
2022/05/03 04:26:11;;;;;;;36.80;30.30;;;9.90;99.90;;;;;;5055771;28;20073;-65
2022/05/03 04:28:38;;;;;;;44.13;31.95;;;9.90;99.90;;;;;;5054952;28;20045;-65
2022/05/03 04:31:04;;;;;;;47.80;35.15;;;9.90;99.90;;;;;;5055967;28;20052;-65
2022/05/03 04:33:30;;;;;;;42.15;31.52;;;9.90;99.90;;;;;;5055677;28;20087;-65
2022/05/03 04:35:55;;;;;;;42.25;32.28;;;9.90;99.90;;;;;;5055770;28;20053;-65
2022/05/03 04:38:21;;;;;;;43.35;32.30;;;9.90;99.90;;;;;;5055335;28;20067;-66
2022/05/03 04:40:46;;;;;;;38.88;30.52;;;9.90;99.90;;;;;;5055389;28;20055;-65
2022/05/03 04:43:12;;;;;;;42.97;31.90;;;9.90;99.90;;;;;;5038311;28;20041;-65
2022/05/03 04:45:38;;;;;;;42.33;30.77;;;9.90;99.90;;;;;;5054818;28;20053;-66
2022/05/03 04:48:04;;;;;;;42.42;31.55;;;9.90;99.90;;;;;;5055108;28;20041;-66
2022/05/03 04:50:29;;;;;;;45.20;33.58;;;10.00;99.90;;;;;;5049085;28;20045;-65
2022/05/03 04:52:56;;;;;;;41.95;32.08;;;10.00;99.90;;;;;;5055183;28;20051;-65
2022/05/03 04:55:23;;;;;;;46.42;32.13;;;10.00;99.90;;;;;;5055494;28;20052;-65
2022/05/03 04:57:49;;;;;;;44.60;33.40;;;10.10;99.90;;;;;;5055070;28;20132;-65
2022/05/03 05:00:15;;;;;;;43.63;33.20;;;10.10;99.90;;;;;;5053980;28;20053;-65
2022/05/03 05:02:40;;;;;;;46.63;33.10;;;10.10;99.90;;;;;;5054562;28;20094;-64
2022/05/03 05:05:06;;;;;;;45.67;33.63;;;10.00;99.90;;;;;;5054738;28;20053;-64
2022/05/03 05:07:32;;;;;;;49.33;33.78;;;10.00;99.90;;;;;;5055378;28;20071;-66
2022/05/03 05:12:43;;;;;;;43.53;31.77;;;10.00;99.90;;;;;;5055207;28;20052;-66
2022/05/03 05:15:09;;;;;;;45.03;29.88;;;10.10;99.90;;;;;;5054996;28;20041;-66
2022/05/03 05:17:34;;;;;;;45.97;29.02;;;10.10;99.90;;;;;;5054709;28;20045;-65
2022/05/03 05:20:00;;;;;;;46.35;28.25;;;10.20;99.90;;;;;;5054110;28;20040;-65
2022/05/03 05:22:25;;;;;;;44.45;27.08;;;10.20;99.90;;;;;;5055054;28;20355;-65
2022/05/03 05:24:51;;;;;;;46.13;27.95;;;10.20;99.90;;;;;;5054835;28;20049;-65
2022/05/03 05:27:17;;;;;;;36.67;25.17;;;10.20;99.90;;;;;;5054759;28;20131;-66
2022/05/03 05:29:43;;;;;;;38.60;24.67;;;10.20;99.90;;;;;;5054802;28;20466;-69
2022/05/03 05:32:09;;;;;;;36.45;23.20;;;10.20;99.90;;;;;;5054543;28;20098;-69
2022/05/03 05:34:35;;;;;;;35.85;23.02;;;10.30;99.90;;;;;;5054759;28;20056;-68
2022/05/03 05:37:00;;;;;;;31.63;22.63;;;10.30;99.90;;;;;;5036227;28;20049;-66
2022/05/03 05:39:26;;;;;;;37.40;21.65;;;10.30;99.90;;;;;;5054784;28;20156;-66
2022/05/03 05:41:56;;;;;;;26.38;18.67;;;10.30;99.90;;;;;;5037085;28;20482;-67
2022/05/03 05:44:22;;;;;;;24.85;18.35;;;10.30;99.90;;;;;;5054691;28;20116;-66
2022/05/03 05:46:48;;;;;;;22.10;16.30;;;10.30;99.90;;;;;;5054049;28;20079;-65
2022/05/03 05:49:14;;;;;;;18.85;14.30;;;10.30;99.90;;;;;;5054281;28;20041;-66
2022/05/03 05:51:39;;;;;;;18.33;15.82;;;10.30;99.90;;;;;;5057099;28;20041;-68
2022/05/03 05:54:05;;;;;;;20.65;13.10;;;10.30;99.90;;;;;;5045059;28;20156;-67
2022/05/03 05:56:30;;;;;;;15.88;10.27;;;10.30;99.90;;;;;;5038749;28;20099;-68
2022/05/03 05:58:57;;;;;;;28.83;11.20;;;10.20;99.90;;;;;;5038794;28;20045;-71
2022/05/03 06:01:26;;;;;;;26.55;10.05;;;10.20;99.90;;;;;;5038073;28;20387;-66
2022/05/03 06:03:52;;;;;;;26.00;9.63;;;10.20;99.90;;;;;;5038536;28;20053;-65
2022/05/03 06:06:18;;;;;;;22.45;9.48;;;10.10;99.90;;;;;;5038123;28;20551;-67
2022/05/03 06:08:43;;;;;;;25.85;9.15;;;10.10;99.90;;;;;;5021019;28;20125;-67
2022/05/03 06:11:09;;;;;;;22.70;9.15;;;10.00;99.90;;;;;;5037342;28;20079;-67
2022/05/03 06:13:35;;;;;;;24.73;8.98;;;10.00;99.90;;;;;;5038191;28;20049;-68
2022/05/03 06:16:11;;;;;;;25.33;9.15;;;10.00;99.90;;;;;;5038090;28;20060;-67
2022/05/03 06:18:37;;;;;;;26.33;9.85;;;10.00;99.90;;;;;;5038018;28;20475;-68
2022/05/03 06:21:05;;;;;;;23.75;9.07;;;9.90;99.90;;;;;;5021250;28;20064;-68
2022/05/03 06:23:31;;;;;;;22.33;8.80;;;9.90;99.90;;;;;;5037828;28;20049;-68
2022/05/03 06:25:58;;;;;;;17.38;8.23;;;9.90;99.90;;;;;;5038070;28;20041;-68
2022/05/03 06:28:23;;;;;;;26.50;9.38;;;9.90;99.90;;;;;;5037212;28;20475;-68
2022/05/03 06:30:49;;;;;;;25.98;8.60;;;9.90;99.90;;;;;;5038256;28;20037;-66
2022/05/03 06:33:15;;;;;;;26.50;8.55;;;9.90;99.90;;;;;;5037669;28;20057;-68
2022/05/03 06:35:41;;;;;;;23.70;7.95;;;9.90;99.90;;;;;;5037928;28;20041;-68
2022/05/03 06:38:06;;;;;;;24.25;8.27;;;9.90;99.90;;;;;;5037912;28;20077;-67
2022/05/03 06:40:32;;;;;;;23.88;8.98;;;9.90;99.90;;;;;;5037852;28;20037;-68
2022/05/03 06:42:57;;;;;;;26.52;9.57;;;9.90;99.90;;;;;;5037943;28;20107;-67
2022/05/03 06:45:24;;;;;;;20.45;7.57;;;9.90;99.90;;;;;;5040175;28;20351;-69
2022/05/03 06:47:49;;;;;;;25.38;8.43;;;9.90;99.90;;;;;;5057843;28;20103;-67
2022/05/03 06:50:16;;;;;;;25.83;9.40;;;9.90;99.90;;;;;;5057659;28;20088;-68
2022/05/03 06:52:42;;;;;;;19.10;8.05;;;10.00;99.90;;;;;;5057613;28;20358;-68
2022/05/03 06:55:08;;;;;;;20.88;7.05;;;10.00;99.90;;;;;;5057395;28;20110;-68
2022/05/03 06:57:35;;;;;;;16.63;6.68;;;10.00;99.90;;;;;;5039607;28;20045;-66
2022/05/03 07:00:02;;;;;;;22.80;6.72;;;10.00;99.90;;;;;;5063673;28;20458;-67
2022/05/03 07:02:31;;;;;;;21.13;6.32;;;10.10;99.90;;;;;;5062208;28;20048;-68
2022/05/03 07:04:59;;;;;;;16.52;6.45;;;10.10;99.90;;;;;;5064078;28;20047;-66
2022/05/03 07:07:26;;;;;;;16.85;6.00;;;10.10;99.90;;;;;;5060011;28;20041;-67
2022/05/03 07:09:51;;;;;;;19.15;6.78;;;10.10;99.90;;;;;;5063167;28;20173;-69
2022/05/03 07:12:17;;;;;;;22.05;5.82;;;10.10;99.90;;;;;;5063032;28;20041;-70
2022/05/03 07:14:42;;;;;;;23.05;6.25;;;10.10;99.90;;;;;;5046069;28;20052;-71
2022/05/03 07:17:08;;;;;;;21.35;6.07;;;10.20;99.90;;;;;;5022531;28;20045;-67
2022/05/03 07:25:02;;;;;;;23.30;5.47;;;10.30;99.90;;;;;;5056767;28;20056;-68
2022/05/03 07:27:28;;;;;;;18.48;5.00;;;10.30;99.90;;;;;;5039996;28;20049;-65
2022/05/03 07:29:54;;;;;;;20.48;6.45;;;10.30;99.90;;;;;;5056696;28;20088;-67
2022/05/03 07:32:19;;;;;;;15.10;5.50;;;10.40;99.90;;;;;;5056039;28;20079;-66
2022/05/03 07:34:46;;;;;;;24.67;6.32;;;10.40;99.90;;;;;;5056642;28;20052;-68
2022/05/03 07:37:12;;;;;;;17.90;5.90;;;10.50;99.90;;;;;;5056844;28;20053;-67
2022/05/03 07:39:38;;;;;;;18.98;5.07;;;10.40;99.90;;;;;;5039248;28;20052;-65
2022/05/03 07:42:05;;;;;;;15.10;5.57;;;10.50;99.90;;;;;;5056859;28;20064;-69
2022/05/03 07:44:30;;;;;;;18.48;6.03;;;10.60;99.90;;;;;;5057043;28;20124;-67
2022/05/03 07:46:57;;;;;;;21.17;6.43;;;10.70;99.90;;;;;;5055838;28;20152;-66
2022/05/03 07:49:22;;;;;;;19.00;6.80;;;10.80;99.90;;;;;;5056380;28;20049;-67
2022/05/03 07:51:48;;;;;;;16.70;5.57;;;10.80;99.90;;;;;;5056345;28;20368;-69
2022/05/03 07:54:14;;;;;;;14.48;5.05;;;10.90;99.90;;;;;;5056495;28;20459;-70
2022/05/03 07:56:40;;;;;;;19.52;5.88;;;11.00;99.90;;;;;;5039058;28;20478;-67
2022/05/03 07:59:08;;;;;;;17.38;5.63;;;11.10;99.90;;;;;;5056240;28;20037;-67
2022/05/03 08:01:34;;;;;;;21.60;6.15;;;11.20;99.90;;;;;;5054949;28;20059;-67
2022/05/03 08:03:59;;;;;;;17.77;5.30;;;11.30;99.90;;;;;;5055512;28;20045;-66
2022/05/03 08:06:27;;;;;;;22.77;6.15;;;11.30;99.90;;;;;;5038590;28;20397;-69
2022/05/03 08:08:52;;;;;;;17.25;5.28;;;11.40;99.90;;;;;;5056300;28;20063;-67
2022/05/03 08:11:18;;;;;;;15.18;4.95;;;11.50;99.90;;;;;;5048775;28;20049;-68
2022/05/03 08:13:45;;;;;;;20.08;6.45;;;11.50;99.90;;;;;;5054512;28;20125;-67
2022/05/03 08:16:18;;;;;;;18.95;6.93;;;11.60;99.90;;;;;;5062047;28;20124;-67
2022/05/03 08:18:44;;;;;;;21.27;4.97;;;11.60;99.90;;;;;;5059127;28;20451;-69
2022/05/03 08:21:11;;;;;;;21.63;5.43;;;11.60;99.90;;;;;;5058281;28;20059;-69
2022/05/03 08:23:39;;;;;;;21.05;5.80;;;11.70;99.90;;;;;;5062126;28;20033;-66
2022/05/03 08:26:05;;;;;;;15.73;5.55;;;11.70;99.90;;;;;;5059522;28;20037;-69
2022/05/03 08:28:32;;;;;;;15.40;5.47;;;11.70;99.90;;;;;;5061224;28;20111;-69
2022/05/03 08:30:58;;;;;;;14.30;4.47;;;11.80;99.90;;;;;;5059656;28;20091;-67
2022/05/03 08:33:23;;;;;;;15.07;4.25;;;11.80;99.90;;;;;;5039365;28;20463;-66
2022/05/03 08:35:49;;;;;;;14.15;5.25;;;11.80;99.90;;;;;;5044167;28;20059;-66
2022/05/03 08:43:46;;;;;;;14.10;5.05;;;11.90;99.90;;;;;;5064639;28;20056;-68
2022/05/03 08:46:12;;;;;;;14.07;4.43;;;11.90;99.90;;;;;;5037608;28;20053;-67
2022/05/03 08:48:44;;;;;;;11.90;4.38;;;11.90;99.90;;;;;;5054781;28;20509;-66
2022/05/03 08:51:15;;;;;;;17.08;5.35;;;11.90;99.90;;;;;;5034995;28;20086;-67
2022/05/03 08:53:41;;;;;;;14.05;4.85;;;12.00;99.90;;;;;;5054888;28;20045;-67
2022/05/03 08:56:06;;;;;;;17.02;5.22;;;12.00;99.90;;;;;;5055043;28;20144;-68
2022/05/03 08:58:33;;;;;;;16.90;5.70;;;12.10;99.90;;;;;;5055056;28;20442;-66
2022/05/03 09:00:58;;;;;;;18.55;4.95;;;11.90;99.90;;;;;;5054328;28;20356;-68
2022/05/03 09:03:24;;;;;;;13.27;4.40;;;12.00;99.90;;;;;;5056188;28;20086;-70
2022/05/03 09:05:52;;;;;;;17.70;4.88;;;11.90;99.90;;;;;;5043649;28;20443;-69
2022/05/03 09:08:23;;;;;;;17.33;4.72;;;12.00;99.90;;;;;;5060434;28;20116;-72
2022/05/03 09:10:49;;;;;;;14.93;5.50;;;12.10;99.90;;;;;;5060408;28;20102;-66
2022/05/03 09:13:20;;;;;;;12.80;4.35;;;12.10;99.90;;;;;;5061373;28;20529;-68
2022/05/03 09:15:48;;;;;;;11.55;4.20;;;12.20;99.90;;;;;;5061914;28;20041;-70
2022/05/03 09:18:22;;;;;;;22.67;5.72;;;12.20;99.90;;;;;;5060627;28;20044;-70
2022/05/03 09:23:51;;;;;;;13.85;4.43;;;12.20;99.90;;;;;;5059857;28;20076;-69
2022/05/03 09:26:25;;;;;;;18.42;4.50;;;12.30;99.90;;;;;;5056280;28;20045;-69
2022/05/03 09:29:11;;;;;;;16.40;4.63;;;12.30;99.90;;;;;;5060030;28;20075;-71
2022/05/03 09:31:47;;;;;;;12.10;4.57;;;12.30;99.90;;;;;;5060450;28;20134;-68
2022/05/03 09:34:23;;;;;;;14.52;4.65;;;12.30;99.90;;;;;;5060015;28;20151;-70
2022/05/03 09:36:59;;;;;;;10.23;4.75;;;12.40;99.90;;;;;;5060377;28;20459;-69
2022/05/03 09:39:41;;;;;;;14.50;4.10;;;12.40;99.90;;;;;;5060492;28;20101;-70
2022/05/03 09:42:14;;;;;;;10.73;3.60;;;12.20;99.90;;;;;;5060809;28;20052;-69
2022/05/03 09:44:52;;;;;;;15.82;4.38;;;12.30;99.90;;;;;;5057772;28;20041;-69
2022/05/03 09:47:20;;;;;;;15.65;4.43;;;12.40;99.90;;;;;;5052961;28;20053;-69
2022/05/03 09:49:45;;;;;;;9.40;3.72;;;12.50;99.90;;;;;;5054234;28;20045;-69
2022/05/03 09:52:39;;;;;;;13.27;4.45;;;12.30;99.90;;;;;;5053947;28;20052;-69
2022/05/03 09:55:10;;;;;;;11.90;3.90;;;12.30;99.90;;;;;;5054209;28;20049;-69
2022/05/03 09:57:40;;;;;;;14.93;4.53;;;12.30;99.90;;;;;;5054670;28;20048;-67
2022/05/03 10:00:08;;;;;;;9.52;3.33;;;12.40;99.90;;;;;;5051877;28;20048;-69
2022/05/03 10:02:37;;;;;;;9.85;3.65;;;12.40;99.90;;;;;;5054177;28;20064;-68
2022/05/03 10:05:02;;;;;;;11.95;3.90;;;12.30;99.90;;;;;;5053699;28;20053;-69
2022/05/03 10:07:29;;;;;;;8.25;3.80;;;12.60;99.90;;;;;;5050764;28;20331;-69
2022/05/03 10:09:54;;;;;;;13.55;3.58;;;12.60;99.90;;;;;;5053775;28;20254;-71
2022/05/03 10:12:20;;;;;;;12.70;3.97;;;12.60;99.90;;;;;;5036946;28;20427;-74
2022/05/03 10:14:47;;;;;;;12.18;3.33;;;12.70;99.90;;;;;;5053954;28;20060;-72
2022/05/03 10:20:42;;;;;;;10.20;3.90;;;12.90;99.90;;;;;;5035101;28;20056;-78
2022/05/03 10:23:19;;;;;;;8.40;3.63;;;13.00;99.90;;;;;;5017114;28;20120;-71
2022/05/03 10:25:44;;;;;;;10.80;3.38;;;12.90;99.90;;;;;;5043630;28;20527;-71
2022/05/03 10:28:10;;;;;;;8.07;3.58;;;13.00;99.90;;;;;;5054287;28;20083;-70
2022/05/03 10:30:38;;;;;;;10.65;3.35;;;13.20;99.90;;;;;;5054155;28;20516;-73
2022/05/03 10:33:19;;;;;;;9.85;3.30;;;13.20;99.90;;;;;;5054052;28;20045;-71
2022/05/03 10:35:46;;;;;;;7.95;3.35;;;13.20;99.90;;;;;;5036447;28;20048;-70
2022/05/03 10:38:12;;;;;;;9.95;3.22;;;13.20;99.90;;;;;;5057333;28;20091;-69
2022/05/03 10:40:47;;;;;;;6.63;2.92;;;13.30;99.90;;;;;;5057717;28;20451;-69
2022/05/03 10:43:23;;;;;;;12.00;3.67;;;13.40;99.90;;;;;;5058006;28;20049;-70
2022/05/03 10:45:57;;;;;;;10.20;3.20;;;13.40;99.90;;;;;;5057745;28;20052;-70
2022/05/03 10:48:23;;;;;;;15.30;3.67;;;13.30;99.90;;;;;;5057701;28;20055;-70
2022/05/03 10:50:52;;;;;;;9.10;3.55;;;13.20;99.90;;;;;;5057634;28;20052;-69
2022/05/03 10:53:20;;;;;;;10.50;3.22;;;13.20;99.90;;;;;;5055928;28;20033;-70
2022/05/03 10:56:18;;;;;;;8.63;2.83;;;13.30;99.90;;;;;;5057179;28;20363;-69
2022/05/03 10:59:05;;;;;;;6.70;2.60;;;13.30;99.90;;;;;;5056397;28;20041;-70
2022/05/03 11:01:30;;;;;;;9.15;2.85;;;13.00;99.90;;;;;;5057491;28;20056;-69
2022/05/03 11:03:59;;;;;;;10.50;2.95;;;12.90;99.90;;;;;;5056263;28;20037;-68
2022/05/03 11:06:25;;;;;;;8.63;3.15;;;12.90;99.90;;;;;;5057144;28;20143;-69
2022/05/03 11:09:08;;;;;;;6.78;2.60;;;13.20;99.90;;;;;;5056961;28;20075;-70
2022/05/03 11:11:42;;;;;;;8.00;2.60;;;13.10;99.90;;;;;;5057172;28;20040;-70
2022/05/03 11:14:19;;;;;;;8.48;2.80;;;13.10;99.90;;;;;;5057227;28;20041;-69
2022/05/03 11:17:05;;;;;;;9.95;2.97;;;13.00;99.90;;;;;;5056269;28;20344;-68
2022/05/03 11:19:36;;;;;;;10.80;2.70;;;13.00;99.90;;;;;;5057112;28;20329;-68
2022/05/03 11:22:08;;;;;;;9.95;3.63;;;13.10;99.90;;;;;;5057160;28;20040;-68
2022/05/03 11:24:33;;;;;;;11.90;2.90;;;12.80;99.90;;;;;;5057024;28;20045;-69
2022/05/03 11:27:07;;;;;;;6.35;2.63;;;12.80;99.90;;;;;;5056850;28;20041;-68
2022/05/03 11:29:36;;;;;;;9.75;3.40;;;13.10;99.90;;;;;;5056545;28;20514;-68
2022/05/03 11:32:07;;;;;;;7.90;3.35;;;13.20;99.90;;;;;;5056885;28;20095;-69
2022/05/03 11:34:33;;;;;;;12.18;2.88;;;13.20;99.90;;;;;;5056256;28;20126;-69
2022/05/03 11:37:00;;;;;;;8.52;3.20;;;13.30;99.90;;;;;;5056769;28;20371;-68
2022/05/03 11:39:25;;;;;;;10.63;3.08;;;13.20;99.90;;;;;;5039713;28;20076;-68
2022/05/03 11:41:52;;;;;;;6.50;2.88;;;13.50;99.90;;;;;;5056706;28;20447;-69
2022/05/03 11:44:18;;;;;;;8.77;2.95;;;13.60;99.90;;;;;;5056377;28;20433;-69
2022/05/03 11:46:45;;;;;;;14.77;3.78;;;13.70;99.90;;;;;;5056438;28;20057;-73
2022/05/03 11:49:13;;;;;;;9.70;3.70;;;13.30;99.90;;;;;;5054440;28;20476;-75
2022/05/03 11:57:23;;;;;;;12.57;3.67;;;14.10;99.90;;;;;;5056531;28;20375;-69
2022/05/03 11:59:55;;;;;;;12.68;4.07;;;14.00;99.90;;;;;;5056635;28;20120;-69
2022/05/03 12:02:33;;;;;;;7.80;2.60;;;13.90;99.90;;;;;;5051203;28;20451;-73
2022/05/03 12:05:17;;;;;;;13.52;3.20;;;14.20;99.90;;;;;;5054982;28;20429;-70
2022/05/03 12:07:54;;;;;;;6.47;2.78;;;14.20;99.90;;;;;;5053067;28;20044;-74
2022/05/03 12:10:44;;;;;;;11.40;3.50;;;14.30;99.90;;;;;;5055535;28;20041;-70
2022/05/03 12:13:23;;;;;;;10.13;3.25;;;14.00;99.90;;;;;;5038747;28;20132;-69
2022/05/03 12:15:58;;;;;;;8.27;3.05;;;14.10;99.90;;;;;;5055361;28;20041;-70
2022/05/03 12:18:35;;;;;;;11.75;4.65;;;14.20;99.90;;;;;;5055882;28;20045;-71
2022/05/03 12:21:16;;;;;;;7.90;2.78;;;14.30;99.90;;;;;;5055543;28;20370;-71
2022/05/03 12:23:45;;;;;;;6.80;2.97;;;14.50;99.90;;;;;;5055182;28;20371;-70
2022/05/03 12:26:19;;;;;;;8.23;3.00;;;14.60;99.90;;;;;;5055488;28;20048;-69
2022/05/03 12:28:52;;;;;;;6.35;3.03;;;14.40;99.90;;;;;;5055376;28;20083;-69
2022/05/03 12:31:19;;;;;;;7.93;3.10;;;14.70;99.90;;;;;;5055629;28;20362;-69
2022/05/03 12:33:48;;;;;;;8.45;3.42;;;14.50;99.90;;;;;;5055616;28;20114;-67
2022/05/03 12:36:46;;;;;;;8.73;3.08;;;14.50;99.90;;;;;;5037942;28;20481;-69
2022/05/03 12:39:17;;;;;;;9.40;3.03;;;14.70;99.90;;;;;;5032779;28;20122;-69
2022/05/03 12:41:45;;;;;;;8.82;3.38;;;14.50;99.90;;;;;;5055281;28;20045;-70
2022/05/03 12:44:13;;;;;;;11.25;3.50;;;15.10;99.90;;;;;;5055583;28;20057;-69
2022/05/03 12:46:40;;;;;;;8.60;3.30;;;15.80;99.90;;;;;;5055582;28;20110;-69
2022/05/03 12:49:11;;;;;;;9.07;2.55;;;16.10;99.90;;;;;;5054353;28;20037;-71
2022/05/03 12:51:38;;;;;;;8.93;2.80;;;16.30;99.90;;;;;;5055311;28;20468;-70
2022/05/03 12:54:04;;;;;;;5.65;2.88;;;16.70;99.90;;;;;;5055240;28;20102;-70
2022/05/03 12:59:15;;;;;;;10.23;3.08;;;17.90;99.90;;;;;;5055191;28;20052;-69
2022/05/03 13:01:42;;;;;;;9.98;3.92;;;18.10;98.90;;;;;;5053970;28;20040;-70
2022/05/03 13:04:12;;;;;;;7.90;3.00;;;18.70;98.60;;;;;;5055269;28;20071;-70
2022/05/03 13:06:38;;;;;;;8.35;3.00;;;19.10;95.80;;;;;;5034551;28;20063;-70
2022/05/03 13:09:03;;;;;;;7.93;3.28;;;18.80;95.20;;;;;;5055235;28;20041;-69
2022/05/03 13:11:30;;;;;;;7.20;2.95;;;19.10;94.90;;;;;;5034592;28;20060;-70
2022/05/03 13:13:56;;;;;;;10.10;3.10;;;19.10;93.20;;;;;;5037821;28;20052;-70
2022/05/03 13:16:22;;;;;;;7.93;2.92;;;19.40;90.50;;;;;;5037295;28;20048;-70
2022/05/03 13:18:47;;;;;;;6.97;2.75;;;19.20;92.20;;;;;;5037149;28;20051;-69
2022/05/03 13:21:13;;;;;;;7.07;3.38;;;20.30;90.90;;;;;;5054471;28;20131;-70
2022/05/03 13:23:39;;;;;;;9.18;2.85;;;19.80;86.30;;;;;;5055080;28;20492;-71
2022/05/03 13:26:04;;;;;;;6.60;3.40;;;20.60;89.10;;;;;;5055151;28;20139;-71
2022/05/03 13:28:30;;;;;;;9.20;3.60;;;20.70;84.50;;;;;;5055109;28;20470;-70
2022/05/03 13:30:56;;;;;;;8.57;2.95;;;21.00;78.40;;;;;;5054756;28;20049;-72